createdAt,value
2018-12-11T00:02:22.324Z,3.50
2018-12-11T00:05:29.137Z,3.23
2018-12-11T00:08:33.870Z,2.13
2018-12-11T00:11:38.596Z,3.47
2018-12-11T00:14:43.326Z,3.10
2018-12-11T00:17:48.053Z,3.00
2018-12-11T00:20:52.800Z,2.33
2018-12-11T00:23:57.518Z,2.57
2018-12-11T00:27:02.241Z,2.80
2018-12-11T00:30:07.310Z,3.03
2018-12-11T00:33:12.193Z,3.00
2018-12-11T00:36:16.942Z,3.20
2018-12-11T00:39:21.657Z,2.93
2018-12-11T00:42:32.644Z,3.23
2018-12-11T00:45:37.365Z,2.70
2018-12-11T00:48:42.071Z,2.77
2018-12-11T00:51:46.793Z,2.90
2018-12-11T00:54:51.593Z,2.90
2018-12-11T00:57:56.314Z,3.27
2018-12-11T01:01:01.054Z,2.33
2018-12-11T01:04:07.822Z,3.03
2018-12-11T01:07:12.575Z,3.40
2018-12-11T01:10:17.347Z,2.70
2018-12-11T01:13:22.045Z,2.53
2018-12-11T01:16:26.770Z,2.60
2018-12-11T01:19:31.493Z,2.37
2018-12-11T01:22:36.197Z,2.07
2018-12-11T01:25:40.918Z,3.00
2018-12-11T01:28:45.655Z,2.87
2018-12-11T01:31:50.392Z,2.83
2018-12-11T01:34:55.117Z,3.23
2018-12-11T01:37:59.845Z,2.87
2018-12-11T01:41:04.644Z,2.63
2018-12-11T01:44:09.409Z,3.00
2018-12-11T01:47:14.146Z,2.43
2018-12-11T01:50:19.263Z,2.17
2018-12-11T01:53:24.004Z,3.17
2018-12-11T01:56:28.689Z,3.10
2018-12-11T01:59:33.384Z,3.10
2018-12-11T02:02:38.133Z,2.57
2018-12-11T02:05:43.013Z,2.50
2018-12-11T02:08:47.957Z,2.97
2018-12-11T02:11:52.697Z,2.90
2018-12-11T02:14:57.429Z,2.70
2018-12-11T02:18:02.162Z,2.37
2018-12-11T02:21:06.917Z,2.73
2018-12-11T02:24:11.638Z,2.63
2018-12-11T02:27:16.414Z,2.93
2018-12-11T02:30:21.104Z,2.90
2018-12-11T02:33:25.821Z,2.50
2018-12-11T02:36:30.568Z,3.40
2018-12-11T02:39:35.254Z,3.33
2018-12-11T02:42:40.006Z,3.10
2018-12-11T02:45:44.718Z,3.40
2018-12-11T02:48:49.456Z,3.10
2018-12-11T02:51:54.212Z,3.07
2018-12-11T02:54:58.929Z,3.50
2018-12-11T02:58:09.802Z,3.00
2018-12-11T03:01:14.581Z,2.97
2018-12-11T03:04:19.349Z,3.43
2018-12-11T03:07:24.046Z,3.70
2018-12-11T03:10:28.757Z,3.37
2018-12-11T03:13:33.469Z,3.23
2018-12-11T03:16:38.180Z,3.60
2018-12-11T03:19:42.929Z,2.33
2018-12-11T03:22:47.670Z,4.23
2018-12-11T03:25:52.399Z,3.40
2018-12-11T03:28:57.862Z,3.60
2018-12-11T03:32:02.612Z,3.07
2018-12-11T03:35:07.339Z,3.43
2018-12-11T03:38:12.057Z,2.83
2018-12-11T03:41:16.787Z,2.93
2018-12-11T03:44:21.620Z,3.30
2018-12-11T03:47:26.325Z,3.63
2018-12-11T03:50:31.083Z,3.57
2018-12-11T03:53:35.789Z,3.73
2018-12-11T03:56:40.503Z,3.80
2018-12-11T03:59:45.239Z,3.80
2018-12-11T04:02:49.954Z,3.03
2018-12-11T04:05:54.668Z,3.00
2018-12-11T04:08:59.415Z,2.80
2018-12-11T04:12:04.716Z,3.47
2018-12-11T04:15:09.604Z,3.90
2018-12-11T04:18:14.338Z,4.30
2018-12-11T04:21:19.050Z,4.63
2018-12-11T04:24:23.790Z,4.53
2018-12-11T04:27:30.694Z,5.17
2018-12-11T04:30:41.879Z,3.80
2018-12-11T04:33:46.612Z,4.63
2018-12-11T04:36:51.354Z,4.87
2018-12-11T04:39:56.089Z,3.57
2018-12-11T04:43:00.844Z,4.10
2018-12-11T04:46:05.593Z,3.90
2018-12-11T04:49:10.304Z,3.50
2018-12-11T04:52:15.053Z,3.23
2018-12-11T04:55:19.781Z,4.37
2018-12-11T04:58:24.528Z,5.00
2018-12-11T05:01:29.225Z,6.37
2018-12-11T05:04:33.973Z,10.97
2018-12-11T05:07:38.707Z,6.80
2018-12-11T05:10:43.635Z,3.97
2018-12-11T05:13:48.358Z,4.17
2018-12-11T05:16:53.197Z,4.23
2018-12-11T05:19:57.895Z,3.90
2018-12-11T05:23:02.593Z,5.07
2018-12-11T05:26:08.301Z,4.00
2018-12-11T05:29:13.181Z,3.97
2018-12-11T05:32:17.908Z,4.33
2018-12-11T05:35:22.612Z,4.60
2018-12-11T05:38:27.982Z,8.77
2018-12-11T05:41:32.720Z,5.73
2018-12-11T05:44:37.468Z,4.27
2018-12-11T05:47:42.207Z,3.30
2018-12-11T05:50:46.916Z,3.73
2018-12-11T05:53:51.781Z,3.47
2018-12-11T05:56:56.490Z,4.80
2018-12-11T06:00:01.208Z,4.27
2018-12-11T06:03:06.415Z,4.00
2018-12-11T06:06:11.118Z,3.87
2018-12-11T06:09:15.930Z,4.40
2018-12-11T06:12:20.636Z,4.37
2018-12-11T06:15:25.345Z,4.50
2018-12-11T06:18:30.076Z,5.33
2018-12-11T06:21:34.829Z,4.93
2018-12-11T06:24:39.555Z,6.43
2018-12-11T06:27:44.274Z,4.70
2018-12-11T06:30:48.962Z,5.13
2018-12-11T06:33:53.697Z,4.90
2018-12-11T06:36:58.420Z,4.57
2018-12-11T06:40:03.139Z,4.20
2018-12-11T06:43:07.889Z,3.80
2018-12-11T06:46:12.615Z,3.77
2018-12-11T06:49:17.386Z,3.37
2018-12-11T06:52:22.133Z,4.03
2018-12-11T06:55:26.843Z,4.00
2018-12-11T06:58:31.583Z,3.83
2018-12-11T07:01:36.299Z,4.60
2018-12-11T07:04:41.029Z,4.70
2018-12-11T07:07:45.738Z,5.00
2018-12-11T07:10:50.473Z,4.67
2018-12-11T07:13:56.362Z,4.03
2018-12-11T07:17:01.122Z,4.30
2018-12-11T07:20:07.101Z,2.70
2018-12-11T07:23:11.875Z,4.20
2018-12-11T07:26:16.641Z,3.83
2018-12-11T07:29:21.372Z,4.03
2018-12-11T07:32:26.135Z,3.50
2018-12-11T07:35:30.877Z,3.80
2018-12-11T07:38:35.603Z,3.73
2018-12-11T07:41:40.344Z,3.20
2018-12-11T07:44:45.072Z,3.57
2018-12-11T07:47:49.785Z,3.53
2018-12-11T07:50:54.537Z,3.30
2018-12-11T07:53:59.290Z,4.33
2018-12-11T07:57:04.001Z,3.20
2018-12-11T08:00:09.110Z,3.73
2018-12-11T08:03:13.866Z,3.87
2018-12-11T08:06:18.597Z,3.80
2018-12-11T08:09:23.357Z,3.30
2018-12-11T08:12:28.086Z,2.97
2018-12-11T08:15:32.796Z,3.80
2018-12-11T08:18:37.513Z,3.10
2018-12-11T08:21:42.281Z,2.57
2018-12-11T08:24:46.955Z,2.90
2018-12-11T08:27:51.646Z,2.67
2018-12-11T08:30:56.382Z,2.77
2018-12-11T08:34:01.114Z,2.20
2018-12-11T08:37:05.865Z,2.90
2018-12-11T08:40:10.600Z,2.80
2018-12-11T08:43:15.352Z,3.13
2018-12-11T08:46:20.099Z,2.30
2018-12-11T08:49:24.795Z,2.40
2018-12-11T08:52:29.537Z,3.00
2018-12-11T08:55:34.268Z,3.30
2018-12-11T08:58:38.984Z,2.23
2018-12-11T09:01:43.848Z,2.67
2018-12-11T09:04:48.578Z,2.80
2018-12-11T09:07:53.310Z,2.67
2018-12-11T09:10:58.036Z,2.93
2018-12-11T09:14:02.790Z,2.60
2018-12-11T09:17:10.467Z,3.20
2018-12-11T09:20:15.526Z,2.97
2018-12-11T09:23:20.307Z,3.00
2018-12-11T09:26:25.046Z,3.23
2018-12-11T09:29:29.958Z,3.30
2018-12-11T09:32:34.687Z,3.23
2018-12-11T09:35:39.528Z,2.57
2018-12-11T09:38:44.274Z,3.00
2018-12-11T09:41:48.994Z,3.00
2018-12-11T09:44:53.716Z,2.90
2018-12-11T09:47:58.473Z,2.90
2018-12-11T09:51:03.205Z,3.17
2018-12-11T09:54:07.960Z,3.07
2018-12-11T09:57:12.696Z,3.40
2018-12-11T10:00:19.285Z,3.33
2018-12-11T10:03:24.177Z,2.80
2018-12-11T10:06:28.932Z,3.17
2018-12-11T10:09:33.751Z,2.50
2018-12-11T10:12:38.492Z,3.10
2018-12-11T10:15:43.213Z,4.73
2018-12-11T10:18:47.952Z,2.87
2018-12-11T10:21:52.784Z,3.57
2018-12-11T10:24:57.539Z,3.20
2018-12-11T10:28:02.258Z,2.77
2018-12-11T10:31:07.033Z,3.27
2018-12-11T10:34:11.801Z,3.47
2018-12-11T10:37:16.534Z,2.80
2018-12-11T10:40:21.281Z,3.30
2018-12-11T10:43:26.032Z,2.73
2018-12-11T10:46:33.715Z,3.20
2018-12-11T10:49:37.678Z,2.93
2018-12-11T10:52:42.461Z,3.50
2018-12-11T10:55:47.187Z,3.30
2018-12-11T10:58:51.930Z,2.60
2018-12-11T11:01:58.889Z,2.60
2018-12-11T11:05:03.709Z,2.67
2018-12-11T11:08:08.423Z,2.77
2018-12-11T11:11:13.165Z,2.30
2018-12-11T11:14:17.982Z,2.33
2018-12-11T11:17:22.797Z,3.00
2018-12-11T11:20:27.611Z,2.50
2018-12-11T11:23:32.319Z,3.10
2018-12-11T11:26:37.053Z,3.10
2018-12-11T11:29:41.777Z,3.23
2018-12-11T11:32:46.496Z,3.50
2018-12-11T11:35:51.221Z,3.83
2018-12-11T11:38:55.918Z,3.57
2018-12-11T11:42:00.651Z,7.10
2018-12-11T11:45:06.977Z,5.30
2018-12-11T11:48:12.984Z,4.97
2018-12-11T11:51:17.696Z,3.40
2018-12-11T11:54:22.477Z,3.03
2018-12-11T11:57:29.858Z,3.17
2018-12-11T12:00:33.990Z,2.80
2018-12-11T12:03:38.784Z,4.20
2018-12-11T12:06:43.541Z,3.00
2018-12-11T12:09:48.296Z,4.17
2018-12-11T12:12:59.514Z,4.10
2018-12-11T12:16:04.254Z,3.67
2018-12-11T12:19:08.985Z,7.63
2018-12-11T12:22:15.078Z,9.10
2018-12-11T12:25:19.819Z,5.70
2018-12-11T12:28:24.559Z,11.97
2018-12-11T12:31:29.814Z,9.67
2018-12-11T12:34:34.582Z,6.53
2018-12-11T12:37:39.305Z,4.93
2018-12-11T12:40:44.026Z,6.10
2018-12-11T12:43:48.881Z,5.27
2018-12-11T12:46:53.605Z,6.17
2018-12-11T12:49:58.379Z,4.57
2018-12-11T12:53:04.066Z,3.53
2018-12-11T12:56:08.859Z,3.93
2018-12-11T12:59:13.633Z,3.73
2018-12-11T13:02:18.356Z,3.77
2018-12-11T13:05:23.921Z,2.57
2018-12-11T13:08:28.958Z,2.23
2018-12-11T13:11:33.743Z,2.80
2018-12-11T13:14:38.591Z,3.03
2018-12-11T13:17:43.376Z,3.50
2018-12-11T13:20:48.206Z,2.70
2018-12-11T13:23:53.021Z,3.27
2018-12-11T13:26:57.808Z,3.67
2018-12-11T13:30:02.614Z,3.00
2018-12-11T13:33:07.584Z,2.53
2018-12-11T13:36:12.361Z,2.37
2018-12-11T13:39:17.073Z,2.00
2018-12-11T13:42:21.808Z,2.13
2018-12-11T13:45:26.563Z,3.10
2018-12-11T13:48:31.298Z,3.93
2018-12-11T13:51:36.041Z,5.47
2018-12-11T13:54:40.762Z,6.90
2018-12-11T13:57:45.486Z,8.23
2018-12-11T14:00:50.299Z,7.70
2018-12-11T14:03:55.034Z,6.67
2018-12-11T14:06:59.760Z,7.30
2018-12-11T14:10:05.085Z,8.50
2018-12-11T14:13:10.055Z,8.63
2018-12-11T14:16:14.871Z,7.20
2018-12-11T14:19:19.656Z,6.60
2018-12-11T14:22:24.382Z,6.40
2018-12-11T14:25:29.085Z,6.67
2018-12-11T14:28:34.004Z,6.13
2018-12-11T14:31:38.774Z,4.93
2018-12-11T14:34:43.506Z,6.07
2018-12-11T14:37:48.365Z,5.37
2018-12-11T14:40:53.092Z,5.03
2018-12-11T14:43:57.886Z,6.10
2018-12-11T14:47:02.689Z,5.20
2018-12-11T14:50:09.228Z,4.33
2018-12-11T14:53:13.964Z,5.93
2018-12-11T14:56:18.691Z,5.30
2018-12-11T14:59:23.421Z,6.10
2018-12-11T15:02:29.501Z,5.10
2018-12-11T15:05:34.477Z,6.10
2018-12-11T15:08:39.216Z,6.47
2018-12-11T15:11:44.033Z,5.50
2018-12-11T15:14:48.801Z,5.50
2018-12-11T15:17:53.597Z,5.40
2018-12-11T15:20:58.373Z,5.47
2018-12-11T15:24:03.095Z,4.97
2018-12-11T15:27:07.869Z,6.17
2018-12-11T15:30:12.613Z,5.50
2018-12-11T15:33:17.520Z,6.33
2018-12-11T15:36:22.253Z,5.73
2018-12-11T15:39:26.969Z,5.07
2018-12-11T15:42:31.685Z,5.00
2018-12-11T15:45:36.402Z,5.77
2018-12-11T15:48:41.173Z,5.00
2018-12-11T15:51:45.881Z,6.70
2018-12-11T15:54:50.610Z,5.73
2018-12-11T15:57:55.308Z,7.60
2018-12-11T16:01:00.047Z,7.20
2018-12-11T16:04:04.844Z,5.87
2018-12-11T16:07:09.592Z,7.87
2018-12-11T16:10:14.476Z,6.80
2018-12-11T16:13:19.306Z,8.23
2018-12-11T16:16:24.016Z,7.60
2018-12-11T16:19:28.825Z,7.80
2018-12-11T16:22:33.583Z,7.43
2018-12-11T16:25:38.315Z,13.70
2018-12-11T16:28:43.046Z,20.63
2018-12-11T16:31:47.812Z,11.80
2018-12-11T16:34:52.885Z,7.27
2018-12-11T16:37:57.771Z,8.40
2018-12-11T16:41:02.535Z,10.67
2018-12-11T16:44:07.293Z,10.37
2018-12-11T16:47:12.058Z,17.00
2018-12-11T16:50:16.808Z,35.47
2018-12-11T16:53:21.690Z,12.13
2018-12-11T16:56:27.088Z,9.23
2018-12-11T16:59:31.970Z,7.23
2018-12-11T17:02:36.690Z,6.83
2018-12-11T17:05:41.427Z,8.90
2018-12-11T17:08:46.160Z,7.10
2018-12-11T17:11:50.929Z,13.00
2018-12-11T17:14:56.527Z,10.27
2018-12-11T17:18:01.350Z,13.87
2018-12-11T17:21:06.472Z,11.20
2018-12-11T17:24:11.224Z,11.83
2018-12-11T17:27:15.977Z,8.27
2018-12-11T17:30:20.699Z,7.13
2018-12-11T17:33:25.422Z,6.70
2018-12-11T17:36:30.166Z,7.57
2018-12-11T17:39:34.925Z,5.57
2018-12-11T17:42:39.742Z,6.17
2018-12-11T17:45:45.623Z,6.20
2018-12-11T17:48:50.516Z,5.23
2018-12-11T17:51:55.249Z,5.63
2018-12-11T17:55:00.138Z,5.73
2018-12-11T17:58:05.005Z,5.83
2018-12-11T18:01:10.057Z,6.13
2018-12-11T18:04:14.963Z,6.13
2018-12-11T18:07:19.704Z,5.10
2018-12-11T18:10:24.510Z,5.57
2018-12-11T18:13:29.521Z,4.90
2018-12-11T18:16:34.282Z,5.20
2018-12-11T18:19:39.075Z,5.63
2018-12-11T18:22:43.816Z,6.50
2018-12-11T18:25:48.557Z,5.70
2018-12-11T18:28:53.813Z,6.43
2018-12-11T18:31:59.439Z,6.47
2018-12-11T18:35:04.965Z,6.77
2018-12-11T18:38:09.849Z,6.47
2018-12-11T18:41:14.774Z,6.60
2018-12-11T18:44:19.605Z,7.00
2018-12-11T18:47:25.839Z,6.93
2018-12-11T18:50:30.884Z,7.33
2018-12-11T18:53:35.744Z,6.07
2018-12-11T18:56:40.485Z,6.03
2018-12-11T18:59:45.230Z,5.97
2018-12-11T19:02:49.983Z,5.17
2018-12-11T19:05:54.809Z,6.03
2018-12-11T19:09:05.602Z,6.13
2018-12-11T19:12:08.608Z,5.70
2018-12-11T19:15:13.784Z,6.40
2018-12-11T19:18:18.606Z,6.13
2018-12-11T19:21:23.389Z,6.37
2018-12-11T19:24:47.067Z,6.47
2018-12-11T19:27:51.974Z,6.43
2018-12-11T19:30:57.449Z,5.60
2018-12-11T19:34:03.602Z,5.47
2018-12-11T19:37:09.120Z,5.90
2018-12-11T19:40:15.398Z,5.93
2018-12-11T19:43:20.145Z,5.63
2018-12-11T19:46:25.033Z,5.67
2018-12-11T19:49:29.784Z,4.90
2018-12-11T19:52:39.714Z,5.93
2018-12-11T19:55:42.271Z,4.13
2018-12-11T19:58:47.256Z,6.13
2018-12-11T20:01:52.010Z,5.37
2018-12-11T20:04:56.750Z,4.87
2018-12-11T20:08:01.518Z,18.80
2018-12-11T20:11:06.317Z,8.97
2018-12-11T20:14:11.269Z,10.10
2018-12-11T20:17:16.063Z,5.30
2018-12-11T20:20:25.818Z,6.90
2018-12-11T20:23:30.760Z,6.50
2018-12-11T20:26:39.266Z,6.37
2018-12-11T20:29:42.302Z,7.60
2018-12-11T20:32:47.050Z,6.77
2018-12-11T20:35:51.769Z,6.20
2018-12-11T20:38:56.529Z,6.07
2018-12-11T20:42:01.253Z,18.50
2018-12-11T20:45:06.853Z,6.27
2018-12-11T20:48:11.740Z,14.67
2018-12-11T20:51:16.523Z,7.67
2018-12-11T20:54:21.246Z,8.77
2018-12-11T20:57:25.996Z,9.97
2018-12-11T21:00:34.122Z,5.73
2018-12-11T21:03:39.011Z,6.87
2018-12-11T21:06:43.721Z,7.10
2018-12-11T21:09:48.451Z,10.87
2018-12-11T21:12:53.201Z,18.40
2018-12-11T21:15:57.930Z,6.67
2018-12-11T21:19:02.870Z,9.97
2018-12-11T21:22:07.606Z,5.73
2018-12-11T21:25:12.326Z,5.37
2018-12-11T21:28:17.235Z,7.60
2018-12-11T21:31:21.997Z,5.23
2018-12-11T21:34:26.725Z,13.63
2018-12-11T21:37:31.455Z,8.50
2018-12-11T21:40:36.386Z,34.83
2018-12-11T21:43:41.096Z,21.23
2018-12-11T21:46:45.807Z,6.80
2018-12-11T21:49:50.564Z,5.93
2018-12-11T21:52:55.307Z,5.27
2018-12-11T21:56:00.064Z,5.53
2018-12-11T21:59:04.854Z,4.17
2018-12-11T22:02:09.592Z,5.30
2018-12-11T22:05:14.350Z,6.37
2018-12-11T22:08:19.115Z,5.23
2018-12-11T22:11:24.092Z,6.13
2018-12-11T22:14:28.838Z,5.47
2018-12-11T22:17:33.650Z,4.90
2018-12-11T22:20:38.381Z,6.40
2018-12-11T22:23:43.125Z,4.27
2018-12-11T22:26:47.839Z,10.20
2018-12-11T22:29:52.594Z,6.47
2018-12-11T22:32:57.309Z,7.80
2018-12-11T22:36:02.046Z,7.70
2018-12-11T22:39:08.660Z,10.10
2018-12-11T22:42:13.855Z,8.10
2018-12-11T22:45:18.563Z,8.33
2018-12-11T22:48:23.559Z,8.60
2018-12-11T22:51:28.773Z,9.27
2018-12-11T22:54:33.682Z,9.57
2018-12-11T22:57:38.407Z,4.60
2018-12-11T23:00:45.744Z,4.00
2018-12-11T23:03:52.554Z,6.17
2018-12-11T23:06:57.348Z,4.40
2018-12-11T23:10:02.462Z,3.50
2018-12-11T23:13:07.415Z,4.67
2018-12-11T23:16:12.166Z,4.43
2018-12-11T23:19:16.862Z,5.23
2018-12-11T23:22:21.941Z,4.80
2018-12-11T23:25:26.677Z,5.63
2018-12-11T23:28:31.441Z,6.73
2018-12-11T23:31:36.145Z,5.00
2018-12-11T23:34:40.865Z,6.37
2018-12-11T23:37:45.617Z,7.03
2018-12-11T23:40:50.340Z,5.87
2018-12-11T23:43:55.094Z,5.60
2018-12-11T23:46:59.822Z,4.83
2018-12-11T23:50:04.765Z,5.30
2018-12-11T23:53:09.484Z,5.50
2018-12-11T23:56:14.173Z,4.70
2018-12-11T23:59:18.885Z,4.47
